sensor_id;sensor_type;location;lat;lon;timestamp;P1;durP1;ratioP1;P2;durP2;ratioP2
44126;SDS011;29786;50.798;7.302;2022-10-31T00:00:22;8.8;;;5.4;;
44126;SDS011;29786;50.798;7.302;2022-10-31T00:01:26;11.5;;;5.2;;
44126;SDS011;29786;50.798;7.302;2022-10-31T00:02:21;8.6;;;5.4;;
44126;SDS011;29786;50.798;7.302;2022-10-31T00:03:21;11.4;;;5.1;;
44126;SDS011;29786;50.798;7.302;2022-10-31T00:04:21;9.6;;;4.9;;
44126;SDS011;29786;50.798;7.302;2022-10-31T00:05:21;12.1;;;5.1;;
44126;SDS011;29786;50.798;7.302;2022-10-31T00:06:22;10.6;;;4.9;;
44126;SDS011;29786;50.798;7.302;2022-10-31T00:07:21;8.1;;;4.9;;
44126;SDS011;29786;50.798;7.302;2022-10-31T00:08:21;12.7;;;4.9;;
44126;SDS011;29786;50.798;7.302;2022-10-31T00:09:21;7.1;;;4.7;;
44126;SDS011;29786;50.798;7.302;2022-10-31T00:10:21;10.4;;;4.7;;
44126;SDS011;29786;50.798;7.302;2022-10-31T00:11:21;9.4;;;5.1;;
44126;SDS011;29786;50.798;7.302;2022-10-31T00:12:21;10;;;5.5;;
44126;SDS011;29786;50.798;7.302;2022-10-31T00:13:21;8.8;;;4.7;;
44126;SDS011;29786;50.798;7.302;2022-10-31T00:14:21;10.4;;;4.9;;
44126;SDS011;29786;50.798;7.302;2022-10-31T00:15:21;11.2;;;5.6;;
44126;SDS011;29786;50.798;7.302;2022-10-31T00:16:22;10.3;;;4.9;;
44126;SDS011;29786;50.798;7.302;2022-10-31T00:17:21;7.8;;;4.7;;
44126;SDS011;29786;50.798;7.302;2022-10-31T00:18:21;7.7;;;4.5;;
44126;SDS011;29786;50.798;7.302;2022-10-31T00:19:21;13.5;;;5.4;;
44126;SDS011;29786;50.798;7.302;2022-10-31T00:20:21;9.7;;;4.3;;
44126;SDS011;29786;50.798;7.302;2022-10-31T00:21:22;10.7;;;4.9;;
44126;SDS011;29786;50.798;7.302;2022-10-31T00:22:21;8.5;;;4.3;;
44126;SDS011;29786;50.798;7.302;2022-10-31T00:23:21;7.9;;;4.5;;
44126;SDS011;29786;50.798;7.302;2022-10-31T00:24:21;10.9;;;5;;
44126;SDS011;29786;50.798;7.302;2022-10-31T00:25:21;9.9;;;4.8;;
44126;SDS011;29786;50.798;7.302;2022-10-31T00:26:21;7.8;;;4.4;;
44126;SDS011;29786;50.798;7.302;2022-10-31T00:27:21;8.5;;;4.5;;
44126;SDS011;29786;50.798;7.302;2022-10-31T00:28:21;8.6;;;5.2;;
44126;SDS011;29786;50.798;7.302;2022-10-31T00:29:22;12.5;;;5.9;;
44126;SDS011;29786;50.798;7.302;2022-10-31T00:30:21;9;;;5;;
44126;SDS011;29786;50.798;7.302;2022-10-31T00:31:22;9.1;;;5.1;;
44126;SDS011;29786;50.798;7.302;2022-10-31T00:32:22;11.1;;;4.8;;
44126;SDS011;29786;50.798;7.302;2022-10-31T00:33:22;9.3;;;4.9;;
44126;SDS011;29786;50.798;7.302;2022-10-31T00:34:21;10;;;4.9;;
44126;SDS011;29786;50.798;7.302;2022-10-31T00:35:22;9.3;;;5.1;;
44126;SDS011;29786;50.798;7.302;2022-10-31T00:36:22;7.7;;;5;;
44126;SDS011;29786;50.798;7.302;2022-10-31T00:37:22;8.5;;;4.8;;
44126;SDS011;29786;50.798;7.302;2022-10-31T00:38:22;8.2;;;4.6;;
44126;SDS011;29786;50.798;7.302;2022-10-31T00:39:22;14.9;;;5.3;;
44126;SDS011;29786;50.798;7.302;2022-10-31T00:40:22;10.6;;;4.5;;
44126;SDS011;29786;50.798;7.302;2022-10-31T00:41:22;8.5;;;4.3;;
44126;SDS011;29786;50.798;7.302;2022-10-31T00:42:21;9.2;;;4.9;;
44126;SDS011;29786;50.798;7.302;2022-10-31T00:43:22;8.8;;;4.6;;
44126;SDS011;29786;50.798;7.302;2022-10-31T00:44:21;7;;;4.2;;
44126;SDS011;29786;50.798;7.302;2022-10-31T00:45:21;10;;;4.6;;
44126;SDS011;29786;50.798;7.302;2022-10-31T00:46:21;11.8;;;4.9;;
44126;SDS011;29786;50.798;7.302;2022-10-31T00:47:21;12.2;;;4.8;;
44126;SDS011;29786;50.798;7.302;2022-10-31T00:48:21;12.1;;;4.7;;
44126;SDS011;29786;50.798;7.302;2022-10-31T00:49:21;10.2;;;4.3;;
44126;SDS011;29786;50.798;7.302;2022-10-31T00:50:21;9.7;;;5.3;;
44126;SDS011;29786;50.798;7.302;2022-10-31T00:51:21;8.7;;;4.7;;
44126;SDS011;29786;50.798;7.302;2022-10-31T00:52:21;8.4;;;4.6;;
44126;SDS011;29786;50.798;7.302;2022-10-31T00:53:22;7.2;;;4.3;;
44126;SDS011;29786;50.798;7.302;2022-10-31T00:54:21;12.6;;;4.9;;
44126;SDS011;29786;50.798;7.302;2022-10-31T00:55:21;8.1;;;4.9;;
44126;SDS011;29786;50.798;7.302;2022-10-31T00:56:21;8.1;;;4.5;;
44126;SDS011;29786;50.798;7.302;2022-10-31T00:57:21;8.9;;;4.5;;
44126;SDS011;29786;50.798;7.302;2022-10-31T00:58:21;9.9;;;5;;
44126;SDS011;29786;50.798;7.302;2022-10-31T00:59:21;12.7;;;5.3;;
44126;SDS011;29786;50.798;7.302;2022-10-31T01:00:22;7.9;;;4.2;;
44126;SDS011;29786;50.798;7.302;2022-10-31T01:01:21;8.5;;;4.2;;
44126;SDS011;29786;50.798;7.302;2022-10-31T01:02:21;10.2;;;4.9;;
44126;SDS011;29786;50.798;7.302;2022-10-31T01:03:22;10.9;;;5;;
44126;SDS011;29786;50.798;7.302;2022-10-31T01:04:21;11.1;;;4.8;;
44126;SDS011;29786;50.798;7.302;2022-10-31T01:05:21;9;;;4.7;;
44126;SDS011;29786;50.798;7.302;2022-10-31T01:06:21;13.6;;;4.7;;
44126;SDS011;29786;50.798;7.302;2022-10-31T01:07:21;8;;;4.5;;
44126;SDS011;29786;50.798;7.302;2022-10-31T01:08:21;8.8;;;4.6;;
44126;SDS011;29786;50.798;7.302;2022-10-31T01:09:21;12.6;;;4.5;;
44126;SDS011;29786;50.798;7.302;2022-10-31T01:10:22;13.4;;;5.3;;
44126;SDS011;29786;50.798;7.302;2022-10-31T01:11:22;11.4;;;4.6;;
44126;SDS011;29786;50.798;7.302;2022-10-31T01:12:21;8.5;;;4.8;;
44126;SDS011;29786;50.798;7.302;2022-10-31T01:13:21;13.9;;;5.2;;
44126;SDS011;29786;50.798;7.302;2022-10-31T01:14:21;9.7;;;5.1;;
44126;SDS011;29786;50.798;7.302;2022-10-31T01:15:22;11;;;4.7;;
44126;SDS011;29786;50.798;7.302;2022-10-31T01:16:22;14;;;5.3;;
44126;SDS011;29786;50.798;7.302;2022-10-31T01:17:21;10.2;;;5;;
44126;SDS011;29786;50.798;7.302;2022-10-31T01:18:21;11.7;;;4.9;;
44126;SDS011;29786;50.798;7.302;2022-10-31T01:19:21;9.9;;;5;;
44126;SDS011;29786;50.798;7.302;2022-10-31T01:20:21;9.1;;;4.9;;
44126;SDS011;29786;50.798;7.302;2022-10-31T01:21:23;8.3;;;5;;
44126;SDS011;29786;50.798;7.302;2022-10-31T01:22:21;10.9;;;4.7;;
44126;SDS011;29786;50.798;7.302;2022-10-31T01:23:21;9.3;;;4.7;;
44126;SDS011;29786;50.798;7.302;2022-10-31T01:24:21;10;;;4.6;;
44126;SDS011;29786;50.798;7.302;2022-10-31T01:25:21;8.8;;;4.7;;
44126;SDS011;29786;50.798;7.302;2022-10-31T01:26:23;8;;;4.2;;
44126;SDS011;29786;50.798;7.302;2022-10-31T01:27:21;10.8;;;4.8;;
44126;SDS011;29786;50.798;7.302;2022-10-31T01:28:21;11.5;;;4.5;;
44126;SDS011;29786;50.798;7.302;2022-10-31T01:29:22;9.8;;;4.9;;
44126;SDS011;29786;50.798;7.302;2022-10-31T01:30:21;8.3;;;4.9;;
44126;SDS011;29786;50.798;7.302;2022-10-31T01:31:23;8.6;;;4.9;;
44126;SDS011;29786;50.798;7.302;2022-10-31T01:32:21;7.2;;;4.2;;
44126;SDS011;29786;50.798;7.302;2022-10-31T01:33:21;8.9;;;4.8;;
44126;SDS011;29786;50.798;7.302;2022-10-31T01:34:21;8.2;;;4.9;;
44126;SDS011;29786;50.798;7.302;2022-10-31T01:35:21;10.2;;;4.9;;
44126;SDS011;29786;50.798;7.302;2022-10-31T01:36:23;9.3;;;5.1;;
44126;SDS011;29786;50.798;7.302;2022-10-31T01:37:21;7.3;;;4.7;;
44126;SDS011;29786;50.798;7.302;2022-10-31T01:38:21;10.4;;;5;;
44126;SDS011;29786;50.798;7.302;2022-10-31T01:39:21;9.6;;;4.6;;
44126;SDS011;29786;50.798;7.302;2022-10-31T01:40:21;10.3;;;4.9;;
44126;SDS011;29786;50.798;7.302;2022-10-31T01:41:23;8.4;;;5.1;;
44126;SDS011;29786;50.798;7.302;2022-10-31T01:42:22;11.8;;;5.1;;
44126;SDS011;29786;50.798;7.302;2022-10-31T01:43:21;14;;;5.4;;
44126;SDS011;29786;50.798;7.302;2022-10-31T01:45:21;11.2;;;5.2;;
44126;SDS011;29786;50.798;7.302;2022-10-31T01:46:23;11;;;5.3;;
44126;SDS011;29786;50.798;7.302;2022-10-31T01:47:27;9.2;;;4.9;;
44126;SDS011;29786;50.798;7.302;2022-10-31T01:48:23;11.3;;;4.8;;
44126;SDS011;29786;50.798;7.302;2022-10-31T01:49:23;9.6;;;5.1;;
44126;SDS011;29786;50.798;7.302;2022-10-31T01:50:37;10.2;;;5.2;;
44126;SDS011;29786;50.798;7.302;2022-10-31T01:51:23;9.1;;;5;;
44126;SDS011;29786;50.798;7.302;2022-10-31T01:52:23;9.7;;;4.7;;
44126;SDS011;29786;50.798;7.302;2022-10-31T01:53:21;7.3;;;5.1;;
44126;SDS011;29786;50.798;7.302;2022-10-31T01:54:22;12;;;5.4;;
44126;SDS011;29786;50.798;7.302;2022-10-31T01:55:26;9.8;;;5.2;;
44126;SDS011;29786;50.798;7.302;2022-10-31T01:56:21;11.1;;;5.4;;
44126;SDS011;29786;50.798;7.302;2022-10-31T01:57:23;9.8;;;5.1;;
44126;SDS011;29786;50.798;7.302;2022-10-31T01:58:22;9.7;;;4.9;;
44126;SDS011;29786;50.798;7.302;2022-10-31T01:59:22;10.1;;;5.8;;
44126;SDS011;29786;50.798;7.302;2022-10-31T02:00:22;9.2;;;5.1;;
44126;SDS011;29786;50.798;7.302;2022-10-31T02:01:21;12.7;;;5.7;;
44126;SDS011;29786;50.798;7.302;2022-10-31T02:02:21;11;;;5.6;;
44126;SDS011;29786;50.798;7.302;2022-10-31T02:03:22;8.9;;;5.2;;
44126;SDS011;29786;50.798;7.302;2022-10-31T02:04:22;10.2;;;5.7;;
44126;SDS011;29786;50.798;7.302;2022-10-31T02:05:22;10;;;5.2;;
44126;SDS011;29786;50.798;7.302;2022-10-31T02:06:26;14.4;;;5.5;;
44126;SDS011;29786;50.798;7.302;2022-10-31T02:07:26;8.6;;;5;;
44126;SDS011;29786;50.798;7.302;2022-10-31T02:08:24;11.4;;;5.3;;
44126;SDS011;29786;50.798;7.302;2022-10-31T02:09:21;12;;;5.6;;
44126;SDS011;29786;50.798;7.302;2022-10-31T02:10:22;11;;;5.6;;
44126;SDS011;29786;50.798;7.302;2022-10-31T02:11:21;11.6;;;4.9;;
44126;SDS011;29786;50.798;7.302;2022-10-31T02:12:21;8.4;;;5;;
44126;SDS011;29786;50.798;7.302;2022-10-31T02:13:21;10.8;;;5.3;;
44126;SDS011;29786;50.798;7.302;2022-10-31T02:14:22;13.6;;;5.4;;
44126;SDS011;29786;50.798;7.302;2022-10-31T02:15:21;9.7;;;5;;
44126;SDS011;29786;50.798;7.302;2022-10-31T02:16:21;10.5;;;5.8;;
44126;SDS011;29786;50.798;7.302;2022-10-31T02:17:21;13.4;;;6.2;;
44126;SDS011;29786;50.798;7.302;2022-10-31T02:18:22;11.1;;;5.7;;
44126;SDS011;29786;50.798;7.302;2022-10-31T02:19:26;9.5;;;5;;
44126;SDS011;29786;50.798;7.302;2022-10-31T02:20:23;11.7;;;6;;
44126;SDS011;29786;50.798;7.302;2022-10-31T02:21:24;11.2;;;5.8;;
44126;SDS011;29786;50.798;7.302;2022-10-31T02:22:30;11.6;;;6;;
44126;SDS011;29786;50.798;7.302;2022-10-31T02:23:33;9.8;;;5.4;;
44126;SDS011;29786;50.798;7.302;2022-10-31T02:26:31;9.7;;;5.9;;
44126;SDS011;29786;50.798;7.302;2022-10-31T02:28:30;9.3;;;5.5;;
44126;SDS011;29786;50.798;7.302;2022-10-31T02:29:28;9.7;;;5.1;;
44126;SDS011;29786;50.798;7.302;2022-10-31T02:30:22;11;;;5.8;;
44126;SDS011;29786;50.798;7.302;2022-10-31T02:31:54;11.6;;;5.9;;
44126;SDS011;29786;50.798;7.302;2022-10-31T02:32:41;12.2;;;6;;
44126;SDS011;29786;50.798;7.302;2022-10-31T02:33:41;10.1;;;5.5;;
44126;SDS011;29786;50.798;7.302;2022-10-31T02:34:23;10.4;;;5.6;;
44126;SDS011;29786;50.798;7.302;2022-10-31T02:35:39;9.6;;;5.6;;
44126;SDS011;29786;50.798;7.302;2022-10-31T02:36:26;9.8;;;5.5;;
44126;SDS011;29786;50.798;7.302;2022-10-31T02:37:25;11.1;;;4.9;;
44126;SDS011;29786;50.798;7.302;2022-10-31T02:38:42;8.5;;;5.1;;
44126;SDS011;29786;50.798;7.302;2022-10-31T02:39:23;11;;;4.9;;
44126;SDS011;29786;50.798;7.302;2022-10-31T02:40:23;12.5;;;5.4;;
44126;SDS011;29786;50.798;7.302;2022-10-31T02:42:23;6.6;;;4.6;;
44126;SDS011;29786;50.798;7.302;2022-10-31T02:42:31;9.9;;;5.6;;
44126;SDS011;29786;50.798;7.302;2022-10-31T02:43:26;8.2;;;4.9;;
44126;SDS011;29786;50.798;7.302;2022-10-31T02:44:27;10.1;;;4.9;;
44126;SDS011;29786;50.798;7.302;2022-10-31T02:45:26;9.5;;;5.3;;
44126;SDS011;29786;50.798;7.302;2022-10-31T02:46:24;10.8;;;5;;
44126;SDS011;29786;50.798;7.302;2022-10-31T02:47:24;10;;;5.3;;
44126;SDS011;29786;50.798;7.302;2022-10-31T02:48:23;9.9;;;5.1;;
44126;SDS011;29786;50.798;7.302;2022-10-31T02:49:24;9.8;;;5.2;;
44126;SDS011;29786;50.798;7.302;2022-10-31T02:50:23;11.2;;;5.5;;
44126;SDS011;29786;50.798;7.302;2022-10-31T02:51:21;8.4;;;5.3;;
44126;SDS011;29786;50.798;7.302;2022-10-31T02:52:24;10;;;4.7;;
44126;SDS011;29786;50.798;7.302;2022-10-31T02:53:21;9.7;;;4.9;;
44126;SDS011;29786;50.798;7.302;2022-10-31T02:54:23;10.5;;;5.1;;
44126;SDS011;29786;50.798;7.302;2022-10-31T02:55:55;8.7;;;5;;
44126;SDS011;29786;50.798;7.302;2022-10-31T02:56:21;9.1;;;4.6;;
44126;SDS011;29786;50.798;7.302;2022-10-31T02:57:24;8.3;;;4.6;;
44126;SDS011;29786;50.798;7.302;2022-10-31T02:58:22;13.6;;;5.3;;
44126;SDS011;29786;50.798;7.302;2022-10-31T02:59:21;8.9;;;4.9;;
44126;SDS011;29786;50.798;7.302;2022-10-31T03:00:21;8.4;;;4.3;;
44126;SDS011;29786;50.798;7.302;2022-10-31T03:01:25;10.5;;;4.8;;
44126;SDS011;29786;50.798;7.302;2022-10-31T03:02:25;10.1;;;5;;
44126;SDS011;29786;50.798;7.302;2022-10-31T03:03:24;10.5;;;4.8;;
44126;SDS011;29786;50.798;7.302;2022-10-31T03:04:32;8.3;;;4.6;;
44126;SDS011;29786;50.798;7.302;2022-10-31T03:05:55;9.9;;;4.7;;
44126;SDS011;29786;50.798;7.302;2022-10-31T03:06:30;9.7;;;5.1;;
44126;SDS011;29786;50.798;7.302;2022-10-31T03:07:41;13.7;;;4.8;;
44126;SDS011;29786;50.798;7.302;2022-10-31T03:08:34;12.9;;;5.1;;
44126;SDS011;29786;50.798;7.302;2022-10-31T03:09:33;11.6;;;5.2;;
44126;SDS011;29786;50.798;7.302;2022-10-31T03:10:26;9.6;;;5.2;;
44126;SDS011;29786;50.798;7.302;2022-10-31T03:11:23;9.8;;;5.2;;
44126;SDS011;29786;50.798;7.302;2022-10-31T03:12:26;8.2;;;4.4;;
44126;SDS011;29786;50.798;7.302;2022-10-31T03:14:24;7.8;;;4.7;;
44126;SDS011;29786;50.798;7.302;2022-10-31T03:14:31;7.4;;;4.8;;
44126;SDS011;29786;50.798;7.302;2022-10-31T03:15:24;8.8;;;5;;
44126;SDS011;29786;50.798;7.302;2022-10-31T03:16:26;8.6;;;4.7;;
44126;SDS011;29786;50.798;7.302;2022-10-31T03:17:23;8.8;;;4.9;;
44126;SDS011;29786;50.798;7.302;2022-10-31T03:18:25;9.2;;;4.6;;
44126;SDS011;29786;50.798;7.302;2022-10-31T03:19:23;12.6;;;4.8;;
44126;SDS011;29786;50.798;7.302;2022-10-31T03:20:23;7.8;;;4.6;;
44126;SDS011;29786;50.798;7.302;2022-10-31T03:21:25;8.1;;;4.6;;
44126;SDS011;29786;50.798;7.302;2022-10-31T03:22:22;10.1;;;4.9;;
44126;SDS011;29786;50.798;7.302;2022-10-31T03:23:22;8.5;;;4.8;;
44126;SDS011;29786;50.798;7.302;2022-10-31T03:24:22;8.6;;;4.9;;
44126;SDS011;29786;50.798;7.302;2022-10-31T03:25:22;9.5;;;4.8;;
44126;SDS011;29786;50.798;7.302;2022-10-31T03:26:21;10.5;;;5.8;;
44126;SDS011;29786;50.798;7.302;2022-10-31T03:27:23;9.9;;;5.4;;
44126;SDS011;29786;50.798;7.302;2022-10-31T03:28:23;10.5;;;5.1;;
44126;SDS011;29786;50.798;7.302;2022-10-31T03:29:22;10.3;;;5.1;;
44126;SDS011;29786;50.798;7.302;2022-10-31T03:30:21;10.9;;;5.3;;
44126;SDS011;29786;50.798;7.302;2022-10-31T03:31:23;8.8;;;5;;
44126;SDS011;29786;50.798;7.302;2022-10-31T03:32:31;9.1;;;5;;
44126;SDS011;29786;50.798;7.302;2022-10-31T03:33:23;10.8;;;5;;
44126;SDS011;29786;50.798;7.302;2022-10-31T03:34:21;12.9;;;5.6;;
44126;SDS011;29786;50.798;7.302;2022-10-31T03:35:22;9.5;;;5.7;;
44126;SDS011;29786;50.798;7.302;2022-10-31T03:36:21;10;;;5.4;;
44126;SDS011;29786;50.798;7.302;2022-10-31T03:37:22;11.6;;;5.8;;
44126;SDS011;29786;50.798;7.302;2022-10-31T03:38:21;11.1;;;5.7;;
44126;SDS011;29786;50.798;7.302;2022-10-31T03:39:22;9.4;;;5.3;;
44126;SDS011;29786;50.798;7.302;2022-10-31T03:40:21;12.1;;;5.3;;
44126;SDS011;29786;50.798;7.302;2022-10-31T03:41:23;8.7;;;5.9;;
44126;SDS011;29786;50.798;7.302;2022-10-31T03:42:23;8.1;;;5.3;;
44126;SDS011;29786;50.798;7.302;2022-10-31T03:43:23;9.8;;;5.3;;
44126;SDS011;29786;50.798;7.302;2022-10-31T03:44:21;10.4;;;5.4;;
44126;SDS011;29786;50.798;7.302;2022-10-31T03:45:23;10;;;5.3;;
44126;SDS011;29786;50.798;7.302;2022-10-31T03:46:21;8.9;;;5.3;;
44126;SDS011;29786;50.798;7.302;2022-10-31T03:47:21;9.3;;;5.3;;
44126;SDS011;29786;50.798;7.302;2022-10-31T03:48:21;7.7;;;5.1;;
44126;SDS011;29786;50.798;7.302;2022-10-31T03:49:21;8.7;;;5;;
44126;SDS011;29786;50.798;7.302;2022-10-31T03:50:21;13.8;;;6;;
44126;SDS011;29786;50.798;7.302;2022-10-31T03:51:22;11.8;;;5.6;;
44126;SDS011;29786;50.798;7.302;2022-10-31T03:52:33;12.5;;;5.8;;
44126;SDS011;29786;50.798;7.302;2022-10-31T03:53:24;10.6;;;6.1;;
44126;SDS011;29786;50.798;7.302;2022-10-31T03:54:25;9.6;;;5.4;;
44126;SDS011;29786;50.798;7.302;2022-10-31T03:55:24;8.9;;;5.1;;
44126;SDS011;29786;50.798;7.302;2022-10-31T03:56:23;12.9;;;6.5;;
44126;SDS011;29786;50.798;7.302;2022-10-31T03:57:33;11.8;;;6;;
44126;SDS011;29786;50.798;7.302;2022-10-31T03:58:23;9.8;;;5.7;;
44126;SDS011;29786;50.798;7.302;2022-10-31T03:59:24;11.6;;;6.1;;
44126;SDS011;29786;50.798;7.302;2022-10-31T04:00:21;11.6;;;5.7;;
44126;SDS011;29786;50.798;7.302;2022-10-31T04:01:21;13;;;5.8;;
44126;SDS011;29786;50.798;7.302;2022-10-31T04:02:22;11.3;;;5.2;;
44126;SDS011;29786;50.798;7.302;2022-10-31T04:03:25;10.6;;;5.9;;
44126;SDS011;29786;50.798;7.302;2022-10-31T04:04:21;10.4;;;5.9;;
44126;SDS011;29786;50.798;7.302;2022-10-31T04:05:21;11.9;;;6.1;;
44126;SDS011;29786;50.798;7.302;2022-10-31T04:06:21;11.2;;;5.6;;
44126;SDS011;29786;50.798;7.302;2022-10-31T04:07:21;10.4;;;5.7;;
44126;SDS011;29786;50.798;7.302;2022-10-31T04:08:23;11.4;;;6;;
44126;SDS011;29786;50.798;7.302;2022-10-31T04:09:21;9.7;;;5.7;;
44126;SDS011;29786;50.798;7.302;2022-10-31T04:10:22;12.4;;;6;;
44126;SDS011;29786;50.798;7.302;2022-10-31T04:11:23;9;;;6.3;;
44126;SDS011;29786;50.798;7.302;2022-10-31T04:12:21;10.4;;;6.1;;
44126;SDS011;29786;50.798;7.302;2022-10-31T04:13:23;10.1;;;6;;
44126;SDS011;29786;50.798;7.302;2022-10-31T04:14:22;9.9;;;5.7;;
44126;SDS011;29786;50.798;7.302;2022-10-31T04:15:21;11.4;;;5.8;;
44126;SDS011;29786;50.798;7.302;2022-10-31T04:16:21;12.4;;;5.2;;
44126;SDS011;29786;50.798;7.302;2022-10-31T04:17:22;10.5;;;5.7;;
44126;SDS011;29786;50.798;7.302;2022-10-31T04:18:22;8.7;;;6;;
44126;SDS011;29786;50.798;7.302;2022-10-31T04:19:21;10.9;;;6.2;;
44126;SDS011;29786;50.798;7.302;2022-10-31T04:20:31;12.4;;;5.8;;
44126;SDS011;29786;50.798;7.302;2022-10-31T04:21:29;11.2;;;6.2;;
44126;SDS011;29786;50.798;7.302;2022-10-31T04:22:21;10.8;;;6;;
44126;SDS011;29786;50.798;7.302;2022-10-31T04:23:22;9.1;;;5.8;;
44126;SDS011;29786;50.798;7.302;2022-10-31T04:24:21;10.9;;;5.6;;
44126;SDS011;29786;50.798;7.302;2022-10-31T04:25:21;14.2;;;6.3;;
44126;SDS011;29786;50.798;7.302;2022-10-31T04:26:21;11.4;;;6.4;;
44126;SDS011;29786;50.798;7.302;2022-10-31T04:27:21;9.5;;;5.4;;
44126;SDS011;29786;50.798;7.302;2022-10-31T04:28:21;9.4;;;6.2;;
44126;SDS011;29786;50.798;7.302;2022-10-31T04:29:21;10.1;;;6.3;;
44126;SDS011;29786;50.798;7.302;2022-10-31T04:30:21;8.8;;;5.6;;
44126;SDS011;29786;50.798;7.302;2022-10-31T04:31:21;9.4;;;5.7;;
44126;SDS011;29786;50.798;7.302;2022-10-31T04:32:21;12.2;;;6.4;;
44126;SDS011;29786;50.798;7.302;2022-10-31T04:33:21;11.7;;;6.1;;
44126;SDS011;29786;50.798;7.302;2022-10-31T04:34:21;14.3;;;5.8;;
44126;SDS011;29786;50.798;7.302;2022-10-31T04:35:21;10.1;;;5.9;;
44126;SDS011;29786;50.798;7.302;2022-10-31T04:36:21;12.2;;;6.3;;
44126;SDS011;29786;50.798;7.302;2022-10-31T04:37:21;11.2;;;6.3;;
44126;SDS011;29786;50.798;7.302;2022-10-31T04:38:21;13.5;;;6.4;;
44126;SDS011;29786;50.798;7.302;2022-10-31T04:39:21;11.5;;;6.7;;
44126;SDS011;29786;50.798;7.302;2022-10-31T04:40:21;11.9;;;6.4;;
44126;SDS011;29786;50.798;7.302;2022-10-31T04:41:21;12.8;;;6.2;;
44126;SDS011;29786;50.798;7.302;2022-10-31T04:42:21;11.5;;;6.5;;
44126;SDS011;29786;50.798;7.302;2022-10-31T04:43:21;12.8;;;6.7;;
44126;SDS011;29786;50.798;7.302;2022-10-31T04:44:21;11.2;;;6.7;;
44126;SDS011;29786;50.798;7.302;2022-10-31T04:45:21;10.8;;;7;;
44126;SDS011;29786;50.798;7.302;2022-10-31T04:46:22;12.1;;;6.7;;
44126;SDS011;29786;50.798;7.302;2022-10-31T04:47:21;13.1;;;6.1;;
44126;SDS011;29786;50.798;7.302;2022-10-31T04:48:21;8.9;;;5.9;;
44126;SDS011;29786;50.798;7.302;2022-10-31T04:49:21;9.4;;;6.3;;
44126;SDS011;29786;50.798;7.302;2022-10-31T04:50:21;10.7;;;6.4;;
44126;SDS011;29786;50.798;7.302;2022-10-31T04:51:21;11;;;6.2;;
44126;SDS011;29786;50.798;7.302;2022-10-31T04:52:21;11.7;;;6.3;;
44126;SDS011;29786;50.798;7.302;2022-10-31T04:53:21;14.2;;;6.5;;
44126;SDS011;29786;50.798;7.302;2022-10-31T04:54:21;12;;;6.3;;
44126;SDS011;29786;50.798;7.302;2022-10-31T04:55:21;14.4;;;7;;
44126;SDS011;29786;50.798;7.302;2022-10-31T04:56:21;10.1;;;6.3;;
44126;SDS011;29786;50.798;7.302;2022-10-31T04:57:21;15.6;;;6.7;;
44126;SDS011;29786;50.798;7.302;2022-10-31T04:58:21;9.4;;;6.1;;
44126;SDS011;29786;50.798;7.302;2022-10-31T04:59:21;12.2;;;5.9;;
44126;SDS011;29786;50.798;7.302;2022-10-31T05:00:22;10.8;;;6.1;;
44126;SDS011;29786;50.798;7.302;2022-10-31T05:01:21;11.5;;;6.1;;
44126;SDS011;29786;50.798;7.302;2022-10-31T05:02:21;12.3;;;6.1;;
44126;SDS011;29786;50.798;7.302;2022-10-31T05:03:21;9.5;;;6.1;;
44126;SDS011;29786;50.798;7.302;2022-10-31T05:04:21;9.5;;;6.4;;
44126;SDS011;29786;50.798;7.302;2022-10-31T05:05:23;11.9;;;6.6;;
44126;SDS011;29786;50.798;7.302;2022-10-31T05:06:21;9.3;;;6.2;;
44126;SDS011;29786;50.798;7.302;2022-10-31T05:07:21;10.3;;;6.3;;
44126;SDS011;29786;50.798;7.302;2022-10-31T05:08:21;12;;;6.3;;
44126;SDS011;29786;50.798;7.302;2022-10-31T05:09:21;12;;;6.4;;
44126;SDS011;29786;50.798;7.302;2022-10-31T05:10:23;11.5;;;6.2;;
44126;SDS011;29786;50.798;7.302;2022-10-31T05:11:21;10.9;;;6.2;;
44126;SDS011;29786;50.798;7.302;2022-10-31T05:12:21;10.4;;;5.9;;
44126;SDS011;29786;50.798;7.302;2022-10-31T05:13:21;10.3;;;6.2;;
44126;SDS011;29786;50.798;7.302;2022-10-31T05:14:21;12;;;6.7;;
44126;SDS011;29786;50.798;7.302;2022-10-31T05:15:22;12.3;;;7.1;;
44126;SDS011;29786;50.798;7.302;2022-10-31T05:16:21;13.1;;;6.8;;
44126;SDS011;29786;50.798;7.302;2022-10-31T05:17:21;13.2;;;7.6;;
44126;SDS011;29786;50.798;7.302;2022-10-31T05:18:22;16.9;;;10.4;;
44126;SDS011;29786;50.798;7.302;2022-10-31T05:19:21;20.6;;;14.1;;
44126;SDS011;29786;50.798;7.302;2022-10-31T05:20:23;18.7;;;11.9;;
44126;SDS011;29786;50.798;7.302;2022-10-31T05:21:21;13.9;;;9.2;;
44126;SDS011;29786;50.798;7.302;2022-10-31T05:22:21;12.7;;;8.2;;
44126;SDS011;29786;50.798;7.302;2022-10-31T05:23:21;13.1;;;7.6;;
44126;SDS011;29786;50.798;7.302;2022-10-31T05:24:21;16.8;;;7.9;;
44126;SDS011;29786;50.798;7.302;2022-10-31T05:25:22;13.8;;;7.4;;
44126;SDS011;29786;50.798;7.302;2022-10-31T05:26:21;11.7;;;7.1;;
44126;SDS011;29786;50.798;7.302;2022-10-31T05:27:21;11.6;;;6.3;;
44126;SDS011;29786;50.798;7.302;2022-10-31T05:28:21;10.1;;;6.3;;
44126;SDS011;29786;50.798;7.302;2022-10-31T05:29:21;14.5;;;6.6;;
44126;SDS011;29786;50.798;7.302;2022-10-31T05:30:23;11.9;;;6.4;;
44126;SDS011;29786;50.798;7.302;2022-10-31T05:31:21;11.4;;;6.6;;
44126;SDS011;29786;50.798;7.302;2022-10-31T05:32:21;10.4;;;5.8;;
44126;SDS011;29786;50.798;7.302;2022-10-31T05:33:21;9.3;;;5.8;;
44126;SDS011;29786;50.798;7.302;2022-10-31T05:34:21;11.9;;;6.3;;
44126;SDS011;29786;50.798;7.302;2022-10-31T05:35:23;13.2;;;6.1;;
44126;SDS011;29786;50.798;7.302;2022-10-31T05:36:21;12.7;;;6.5;;
44126;SDS011;29786;50.798;7.302;2022-10-31T05:37:21;8.8;;;5.4;;
44126;SDS011;29786;50.798;7.302;2022-10-31T05:38:21;12.5;;;6.1;;
44126;SDS011;29786;50.798;7.302;2022-10-31T05:39:21;12.5;;;5.9;;
44126;SDS011;29786;50.798;7.302;2022-10-31T05:40:21;10.7;;;6.2;;
44126;SDS011;29786;50.798;7.302;2022-10-31T05:41:21;8;;;5.4;;
44126;SDS011;29786;50.798;7.302;2022-10-31T05:42:21;12.1;;;6.2;;
44126;SDS011;29786;50.798;7.302;2022-10-31T05:43:21;13.7;;;6.2;;
44126;SDS011;29786;50.798;7.302;2022-10-31T05:44:21;8.2;;;5.6;;
44126;SDS011;29786;50.798;7.302;2022-10-31T05:45:21;12.9;;;6.5;;
44126;SDS011;29786;50.798;7.302;2022-10-31T05:46:21;16.1;;;6.4;;
44126;SDS011;29786;50.798;7.302;2022-10-31T05:47:21;11.4;;;6.1;;
44126;SDS011;29786;50.798;7.302;2022-10-31T05:48:21;10.1;;;6.6;;
44126;SDS011;29786;50.798;7.302;2022-10-31T05:49:21;9.2;;;6.1;;
44126;SDS011;29786;50.798;7.302;2022-10-31T05:50:22;9.5;;;6.3;;
44126;SDS011;29786;50.798;7.302;2022-10-31T05:51:21;11.4;;;6.7;;
44126;SDS011;29786;50.798;7.302;2022-10-31T05:52:21;11.2;;;5.8;;
44126;SDS011;29786;50.798;7.302;2022-10-31T05:53:21;11;;;6.2;;
44126;SDS011;29786;50.798;7.302;2022-10-31T05:54:21;14.3;;;6.2;;
44126;SDS011;29786;50.798;7.302;2022-10-31T05:55:21;14.6;;;7.3;;
44126;SDS011;29786;50.798;7.302;2022-10-31T05:56:21;16.4;;;6.4;;
44126;SDS011;29786;50.798;7.302;2022-10-31T05:57:21;10.2;;;5.9;;
44126;SDS011;29786;50.798;7.302;2022-10-31T05:58:21;8.4;;;5.8;;
44126;SDS011;29786;50.798;7.302;2022-10-31T05:59:21;10.2;;;6.5;;
44126;SDS011;29786;50.798;7.302;2022-10-31T06:00:22;13.9;;;6.2;;
44126;SDS011;29786;50.798;7.302;2022-10-31T06:01:21;11.7;;;6.1;;
44126;SDS011;29786;50.798;7.302;2022-10-31T06:02:21;13.2;;;6.2;;
44126;SDS011;29786;50.798;7.302;2022-10-31T06:03:21;12.3;;;6.5;;
44126;SDS011;29786;50.798;7.302;2022-10-31T06:04:21;12.1;;;5.7;;
44126;SDS011;29786;50.798;7.302;2022-10-31T06:05:21;11;;;5.6;;
44126;SDS011;29786;50.798;7.302;2022-10-31T06:06:21;12.9;;;5.9;;
44126;SDS011;29786;50.798;7.302;2022-10-31T06:07:21;8.6;;;6.1;;
44126;SDS011;29786;50.798;7.302;2022-10-31T06:08:21;11.8;;;6.4;;
44126;SDS011;29786;50.798;7.302;2022-10-31T06:09:21;11.6;;;6.4;;
44126;SDS011;29786;50.798;7.302;2022-10-31T06:10:22;12.8;;;5.7;;
44126;SDS011;29786;50.798;7.302;2022-10-31T06:11:21;11.5;;;6.1;;
44126;SDS011;29786;50.798;7.302;2022-10-31T06:12:21;9.5;;;5.9;;
44126;SDS011;29786;50.798;7.302;2022-10-31T06:13:21;11;;;6.3;;
44126;SDS011;29786;50.798;7.302;2022-10-31T06:14:21;12.3;;;6;;
44126;SDS011;29786;50.798;7.302;2022-10-31T06:15:21;14.2;;;6.4;;